Airfield :
LOGIN :

Register | Disclaimer

   EN    FR    IT 

 










Legend :    VFR   Marginal VFR   IFR   Intensive IFR   Very Intensive IFR
Visi :
Ceiling :
>= 8 km
>= 3000ft
5 to 8 km
1000 to 3000 ft
1500m to 5 km
500 to 1000 ft
800 to 1500m
200 to 500 ft
< 800m
< 200 ft
Symbols :   Thunderstorms  Fog  Heavy snow  Heavy precipitations  Wind > 20 kt
SIGMETs :     Misc.  Thunderstorms  Icing  Turbulence  Mountain Waves  Volcanic Ashes






- Airport Elevation : 197 ft
- IATA code : XOG


LFMO - Orange

CURRENT METAR :
  • 050700Z AUTO VRB02KT 9999 BKN004 OVC200 18/17 Q1013 BECMG NSC

EXPIRED METARs :
  • 050630Z AUTO VRB03KT 8000 OVC003 17/17 Q1013 BECMG NSC
  • 050600Z AUTO VRB01KT 2100 R14/1400U BR VV/// 17/17 Q1013 BECMG CAVOK
  • 050530Z AUTO 00000KT 1100 0750 R14/1000N BCFG VV/// 17/17 Q1013 BECMG CAVOK
  • 050500Z AUTO 00000KT 0450 0400 R14/0500N FG VV/// 17/17 Q1013 BECMG CAVOK
  • 050430Z AUTO VRB03KT 0550 0450 R14/0600U FG VV/// 17/17 Q1013 BECMG CAVOK

TAF TAF LFMO
Valid from the 05 at 03:00 until the 06 at 03:00 UTC


050200Z 0503/0603 VRB02KT 0400 FG VV/// TX27/0513Z TN17/0503Z
TEMPO 0503/0506 0200
BECMG 0506/0508 CAVOK



MET'MAP, your aeronautical weather chart ! - Copyright ORBIFLY December 2007 - Disclaimer

ORBIFLY MET'MAP TEAM :

Programming & Development : Alexandra Zaïnal
Concept & original design : Baudouin d'Aumeries
Assistance for programming : Marc-Olivier Méhu
Technical & hardware support : Manuel Goepfert

Contact : metmap@orbifly.com




SOURCES & CREDITS :

   NOAA